Terminal Aerodrome Forecast
Issued by NWS Pocatello, ID

Home | Current Version | Previous Version | Text Only | Print | Product List | Glossary On
Versions: 1 2 3 4 5 6 7 8 9 10 11 12 13 14 15 16
000
FTUS45 KPIH 290520
TAFIDA
TAF
KIDA 290520Z 2906/3006 20007KT P6SM SCT030
     FM291500 20010KT P6SM FEW030 BKN060 OVC090
     FM292300 20012KT P6SM VCSH SCT030 OVC040=

USA.gov is the U.S. government's official web portal to all federal, state and local government web resources and services.